Time;durP1;ratioP1;P1;durP2;ratioP2;P2;SDS_P1;SDS_P2;PMS_P1;PMS_P2;Temp;Humidity;BMP_temperature;BMP_pressure;BME280_temperature;BME280_humidity;BME280_pressure;Samples;Min_cycle;Max_cycle;Signal;HPM_P1;HPM_P2
2022/07/27 00:00:22;;;;;;;14.63;10.40;;;;;;;;;;4983151;28;20034;-77
2022/07/27 00:02:48;;;;;;;11.70;10.52;;;;;;;;;;4959679;28;20251;-77
2022/07/27 00:05:14;;;;;;;12.60;11.00;;;;;;;;;;4992844;28;20905;-76
2022/07/27 00:07:40;;;;;;;11.13;9.93;;;;;;;;;;4991553;28;20030;-76
2022/07/27 00:10:05;;;;;;;10.43;9.48;;;;;;;;;;4975887;28;20034;-76
2022/07/27 00:12:31;;;;;;;11.70;10.48;;;;;;;;;;5005673;28;20385;-77
2022/07/27 00:14:58;;;;;;;11.93;9.75;;;;;;;;;;4975082;28;20042;-77
2022/07/27 00:17:26;;;;;;;12.07;10.13;;;;;;;;;;5003628;28;20014;-77
2022/07/27 00:19:51;;;;;;;13.23;10.27;;;;;;;;;;4981034;28;20042;-77
2022/07/27 00:22:17;;;;;;;12.05;10.75;;;;;;;;;;4993318;28;20026;-77
2022/07/27 00:24:42;;;;;;;12.57;10.88;;;;;;;;;;5002115;28;20064;-76
2022/07/27 00:27:07;;;;;;;13.10;11.23;;;;;;;;;;4975409;28;20440;-77
2022/07/27 00:29:33;;;;;;;13.15;10.68;;;;;;;;;;4975306;28;20053;-77
2022/07/27 00:31:59;;;;;;;12.73;10.45;;;;;;;;;;4987219;28;20038;-77
2022/07/27 00:34:24;;;;;;;11.57;10.25;;;;;;;;;;5000767;28;20018;-77
2022/07/27 00:36:49;;;;;;;13.70;11.07;;;;;;;;;;4981084;28;20037;-76
2022/07/27 00:39:15;;;;;;;13.00;10.43;;;;;;;;;;5003879;28;20042;-76
2022/07/27 00:41:40;;;;;;;13.25;10.63;;;;;;;;;;4974946;28;20030;-76
2022/07/27 00:44:06;;;;;;;12.38;11.07;;;;;;;;;;4982501;28;20038;-76
2022/07/27 00:46:31;;;;;;;11.93;10.77;;;;;;;;;;5009912;28;20729;-75
2022/07/27 00:48:57;;;;;;;12.75;10.50;;;;;;;;;;4975485;28;20393;-76
2022/07/27 00:51:23;;;;;;;14.82;11.32;;;;;;;;;;4993436;28;20088;-77
2022/07/27 00:53:48;;;;;;;12.88;10.73;;;;;;;;;;4985855;28;20516;-77
2022/07/27 00:56:14;;;;;;;13.27;11.40;;;;;;;;;;4995986;28;20030;-77
2022/07/27 00:58:39;;;;;;;13.60;11.18;;;;;;;;;;4990604;28;20073;-77
2022/07/27 01:01:05;;;;;;;13.52;10.35;;;;;;;;;;4995960;28;20026;-76
2022/07/27 01:03:30;;;;;;;14.45;11.48;;;;;;;;;;4978856;28;20113;-76
2022/07/27 01:05:59;;;;;;;12.50;11.15;;;;;;;;;;4995846;28;20458;-76
2022/07/27 01:08:24;;;;;;;12.45;11.20;;;;;;;;;;5002034;28;20448;-77
2022/07/27 01:10:49;;;;;;;11.98;10.77;;;;;;;;;;4983770;28;20027;-76
2022/07/27 01:13:15;;;;;;;15.13;11.50;;;;;;;;;;4978761;28;20449;-77
2022/07/27 01:15:41;;;;;;;14.63;11.40;;;;;;;;;;4973020;28;20030;-79
2022/07/27 01:18:10;;;;;;;14.70;11.27;;;;;;;;;;5011945;28;20527;-77
2022/07/27 01:20:36;;;;;;;13.60;10.95;;;;;;;;;;4999656;28;20449;-77
2022/07/27 01:23:01;;;;;;;13.38;10.60;;;;;;;;;;5014099;28;20069;-75
2022/07/27 01:25:27;;;;;;;13.02;10.50;;;;;;;;;;4999267;28;20030;-76
2022/07/27 01:27:52;;;;;;;12.55;10.88;;;;;;;;;;5012376;28;20072;-77
2022/07/27 01:30:28;;;;;;;13.70;10.85;;;;;;;;;;4993441;28;20033;-76
2022/07/27 01:33:00;;;;;;;13.05;11.13;;;;;;;;;;4985322;28;20034;-77
2022/07/27 01:35:26;;;;;;;16.88;11.70;;;;;;;;;;4995444;28;20041;-77
2022/07/27 01:37:51;;;;;;;18.63;12.15;;;;;;;;;;4994391;28;20026;-76
2022/07/27 01:40:16;;;;;;;14.07;11.45;;;;;;;;;;4997926;28;20057;-76
2022/07/27 01:42:42;;;;;;;15.20;11.07;;;;;;;;;;4995877;28;20030;-76
2022/07/27 01:45:07;;;;;;;14.93;11.40;;;;;;;;;;5004353;28;20053;-77
2022/07/27 01:47:33;;;;;;;16.52;11.93;;;;;;;;;;4995441;28;20397;-77
2022/07/27 01:49:58;;;;;;;12.45;10.43;;;;;;;;;;5009372;28;20045;-77
2022/07/27 01:52:24;;;;;;;12.80;11.40;;;;;;;;;;4997036;28;20050;-77
2022/07/27 01:54:49;;;;;;;16.27;11.77;;;;;;;;;;4983955;28;20030;-76
2022/07/27 01:57:15;;;;;;;13.70;10.95;;;;;;;;;;4964976;28;20071;-78
2022/07/27 01:59:40;;;;;;;11.82;10.73;;;;;;;;;;4991375;28;20030;-76
2022/07/27 02:02:06;;;;;;;12.45;9.93;;;;;;;;;;4985807;28;20449;-76
2022/07/27 02:04:31;;;;;;;13.40;10.40;;;;;;;;;;4974461;28;20031;-76
2022/07/27 02:06:56;;;;;;;18.17;16.23;;;;;;;;;;4976211;28;20501;-77
2022/07/27 02:09:24;;;;;;;12.70;11.18;;;;;;;;;;4983726;28;20121;-76
2022/07/27 02:14:34;;;;;;;12.60;10.55;;;;;;;;;;4987824;28;20035;-75
2022/07/27 02:16:59;;;;;;;14.15;11.40;;;;;;;;;;4986919;28;20076;-76
2022/07/27 02:19:25;;;;;;;15.13;10.90;;;;;;;;;;4974223;28;20031;-76
2022/07/27 02:21:50;;;;;;;16.10;10.65;;;;;;;;;;4985782;28;20117;-77
2022/07/27 02:24:16;;;;;;;13.10;11.10;;;;;;;;;;4974543;28;20034;-76
2022/07/27 02:26:41;;;;;;;14.32;11.63;;;;;;;;;;4973690;28;20039;-77
2022/07/27 02:29:07;;;;;;;13.07;10.57;;;;;;;;;;4992589;28;20125;-76
2022/07/27 02:31:32;;;;;;;12.93;10.75;;;;;;;;;;4974229;28;20110;-77
2022/07/27 02:33:58;;;;;;;14.45;11.30;;;;;;;;;;4991644;28;20125;-76
2022/07/27 02:36:23;;;;;;;14.77;11.70;;;;;;;;;;4993141;28;20022;-77
2022/07/27 02:38:49;;;;;;;12.82;11.52;;;;;;;;;;4992863;28;20573;-76
2022/07/27 02:41:14;;;;;;;14.57;11.52;;;;;;;;;;4995910;28;20030;-77
2022/07/27 02:43:40;;;;;;;13.48;10.55;;;;;;;;;;4982465;28;20100;-75
2022/07/27 02:46:05;;;;;;;12.43;11.05;;;;;;;;;;4969291;28;20026;-77
2022/07/27 02:48:31;;;;;;;13.75;11.00;;;;;;;;;;5005720;28;20031;-76
2022/07/27 02:51:00;;;;;;;13.10;11.52;;;;;;;;;;5004220;28;20477;-76
2022/07/27 02:53:26;;;;;;;14.07;12.07;;;;;;;;;;4995132;28;20045;-75
2022/07/27 02:55:51;;;;;;;14.45;12.48;;;;;;;;;;4995165;28;20033;-77
2022/07/27 02:58:17;;;;;;;14.73;12.23;;;;;;;;;;5007069;28;20037;-76
2022/07/27 03:00:42;;;;;;;16.15;12.70;;;;;;;;;;4976026;28;20181;-77
2022/07/27 03:03:08;;;;;;;18.08;12.80;;;;;;;;;;5003129;28;20039;-76
2022/07/27 03:05:33;;;;;;;15.95;13.45;;;;;;;;;;4977925;28;20038;-77
2022/07/27 03:07:59;;;;;;;16.00;12.75;;;;;;;;;;4989962;28;20125;-76
2022/07/27 03:10:24;;;;;;;17.30;13.48;;;;;;;;;;4983584;28;20027;-78
2022/07/27 03:12:50;;;;;;;18.35;12.85;;;;;;;;;;4989610;28;20060;-77
2022/07/27 03:15:15;;;;;;;15.68;11.93;;;;;;;;;;4972636;28;20031;-77
2022/07/27 03:17:41;;;;;;;14.98;11.73;;;;;;;;;;4987322;28;20026;-76
2022/07/27 03:20:07;;;;;;;14.68;12.20;;;;;;;;;;4980619;28;20050;-77
2022/07/27 03:22:32;;;;;;;14.32;12.10;;;;;;;;;;4974160;28;20046;-76
2022/07/27 03:24:58;;;;;;;14.77;11.32;;;;;;;;;;4974483;28;20034;-77
2022/07/27 03:27:23;;;;;;;14.48;11.02;;;;;;;;;;4979488;28;20073;-77
2022/07/27 03:29:49;;;;;;;15.70;11.45;;;;;;;;;;4992223;28;20042;-78
2022/07/27 03:32:14;;;;;;;13.85;11.10;;;;;;;;;;4996607;28;20563;-76
2022/07/27 03:34:40;;;;;;;14.95;11.13;;;;;;;;;;4986093;28;20018;-78
2022/07/27 03:37:05;;;;;;;15.90;11.43;;;;;;;;;;4971186;28;20085;-77
2022/07/27 03:39:30;;;;;;;15.40;11.88;;;;;;;;;;4993659;28;20029;-77
2022/07/27 03:41:56;;;;;;;15.55;11.63;;;;;;;;;;5012461;28;20117;-75
2022/07/27 03:44:21;;;;;;;14.48;11.88;;;;;;;;;;5012006;28;20036;-77
2022/07/27 03:46:47;;;;;;;16.30;11.68;;;;;;;;;;4977036;28;20038;-77
2022/07/27 03:49:12;;;;;;;12.68;11.38;;;;;;;;;;4983211;28;20026;-77
2022/07/27 03:51:38;;;;;;;14.85;11.95;;;;;;;;;;4978064;28;20407;-77
2022/07/27 03:54:03;;;;;;;13.52;11.93;;;;;;;;;;4991371;28;20046;-76
2022/07/27 03:56:31;;;;;;;14.50;11.80;;;;;;;;;;4994209;28;20181;-75
2022/07/27 03:58:57;;;;;;;15.40;11.90;;;;;;;;;;4978929;28;20043;-77
2022/07/27 04:01:23;;;;;;;14.80;11.48;;;;;;;;;;4989563;28;20042;-77
2022/07/27 04:03:48;;;;;;;14.00;11.48;;;;;;;;;;4992327;28;20097;-78
2022/07/27 04:06:14;;;;;;;14.43;11.07;;;;;;;;;;4983502;28;20038;-77
2022/07/27 04:08:39;;;;;;;14.93;12.38;;;;;;;;;;4992346;28;20023;-76
2022/07/27 04:11:05;;;;;;;16.27;11.85;;;;;;;;;;4994618;28;20519;-78
2022/07/27 04:13:30;;;;;;;21.30;15.00;;;;;;;;;;4976795;28;20029;-76
2022/07/27 04:15:56;;;;;;;16.45;13.13;;;;;;;;;;4978363;28;20046;-76
2022/07/27 04:18:22;;;;;;;17.90;12.77;;;;;;;;;;4976115;28;20072;-75
2022/07/27 04:20:47;;;;;;;17.90;13.38;;;;;;;;;;4971803;28;20128;-76
2022/07/27 04:23:13;;;;;;;17.05;13.70;;;;;;;;;;4992878;28;20501;-77
2022/07/27 04:25:40;;;;;;;16.83;13.93;;;;;;;;;;4992017;28;20038;-78
2022/07/27 04:28:06;;;;;;;17.35;13.50;;;;;;;;;;4968206;28;20022;-76
2022/07/27 04:30:31;;;;;;;21.05;14.27;;;;;;;;;;4995645;28;20041;-77
2022/07/27 04:32:57;;;;;;;19.10;13.65;;;;;;;;;;4983178;28;20054;-78
2022/07/27 04:35:22;;;;;;;23.48;14.63;;;;;;;;;;4995893;28;20065;-77
2022/07/27 04:37:48;;;;;;;17.15;14.38;;;;;;;;;;4978444;28;20034;-76
2022/07/27 04:40:13;;;;;;;20.88;14.32;;;;;;;;;;4997327;28;20038;-77
2022/07/27 04:42:39;;;;;;;19.48;15.77;;;;;;;;;;5001732;28;20029;-77
2022/07/27 04:45:04;;;;;;;20.23;16.42;;;;;;;;;;5005422;28;20046;-77
2022/07/27 04:47:30;;;;;;;18.88;15.85;;;;;;;;;;5018922;28;20033;-77
2022/07/27 04:49:55;;;;;;;20.00;16.27;;;;;;;;;;5002291;28;20030;-77
2022/07/27 04:52:21;;;;;;;21.98;16.20;;;;;;;;;;4981593;28;20413;-76
2022/07/27 04:54:49;;;;;;;20.05;17.80;;;;;;;;;;5009591;28;20390;-76
2022/07/27 04:57:15;;;;;;;20.33;17.98;;;;;;;;;;4989017;28;20034;-77
2022/07/27 04:59:40;;;;;;;22.52;17.70;;;;;;;;;;4984926;28;20045;-76
2022/07/27 05:02:06;;;;;;;19.67;15.52;;;;;;;;;;4978381;28;20405;-78
2022/07/27 05:04:31;;;;;;;21.77;17.42;;;;;;;;;;4994720;28;20116;-78
2022/07/27 05:06:56;;;;;;;24.52;16.00;;;;;;;;;;5006986;28;20026;-77
2022/07/27 05:09:22;;;;;;;18.33;16.40;;;;;;;;;;4987054;28;20046;-77
2022/07/27 05:11:47;;;;;;;18.40;16.38;;;;;;;;;;5008503;28;20077;-80
2022/07/27 05:14:13;;;;;;;22.45;16.33;;;;;;;;;;4981331;28;20034;-77
2022/07/27 05:16:39;;;;;;;20.88;16.65;;;;;;;;;;4982036;28;20489;-78
2022/07/27 05:19:04;;;;;;;18.13;15.63;;;;;;;;;;5011939;28;20033;-78
2022/07/27 05:21:30;;;;;;;19.67;16.35;;;;;;;;;;4992406;28;20088;-77
2022/07/27 05:23:55;;;;;;;19.20;16.17;;;;;;;;;;5010381;28;20121;-77
2022/07/27 05:26:21;;;;;;;19.73;14.77;;;;;;;;;;4981397;28;20033;-76
2022/07/27 05:28:47;;;;;;;19.98;15.63;;;;;;;;;;5000374;28;20045;-78
2022/07/27 05:31:12;;;;;;;17.83;15.55;;;;;;;;;;5009030;28;20121;-78
2022/07/27 05:33:38;;;;;;;17.38;15.65;;;;;;;;;;4998906;28;20034;-78
2022/07/27 05:36:04;;;;;;;19.27;15.93;;;;;;;;;;4998779;28;20030;-77
2022/07/27 05:38:29;;;;;;;22.00;16.83;;;;;;;;;;5007102;28;20061;-78
2022/07/27 05:40:54;;;;;;;17.63;15.82;;;;;;;;;;5003999;28;20037;-77
2022/07/27 05:43:20;;;;;;;21.38;16.35;;;;;;;;;;4989413;28;20031;-78
2022/07/27 05:45:45;;;;;;;17.17;15.38;;;;;;;;;;5015220;28;20471;-76
2022/07/27 05:48:11;;;;;;;19.58;16.35;;;;;;;;;;5011602;28;20029;-76
2022/07/27 05:50:36;;;;;;;17.33;14.55;;;;;;;;;;4991359;28;20093;-77
2022/07/27 05:53:02;;;;;;;21.33;15.45;;;;;;;;;;4984288;28;20054;-76
2022/07/27 05:55:27;;;;;;;21.20;15.40;;;;;;;;;;4997420;28;20540;-78
2022/07/27 05:57:53;;;;;;;15.45;13.10;;;;;;;;;;4987755;28;20437;-78
2022/07/27 06:00:18;;;;;;;16.42;14.73;;;;;;;;;;4995477;28;20038;-76
2022/07/27 06:02:44;;;;;;;18.95;15.10;;;;;;;;;;4994157;28;20085;-77
2022/07/27 06:05:09;;;;;;;17.35;15.20;;;;;;;;;;4994283;28;20578;-78
2022/07/27 06:10:19;;;;;;;17.35;14.95;;;;;;;;;;5004576;28;20571;-77
2022/07/27 06:12:44;;;;;;;18.02;14.77;;;;;;;;;;5010380;28;20034;-77
2022/07/27 06:15:10;;;;;;;18.23;14.75;;;;;;;;;;5013268;28;20041;-78
2022/07/27 06:17:36;;;;;;;15.90;14.13;;;;;;;;;;4996266;28;20029;-81
